Latest Weather Observations for Essendon Airport

IDV60801

Issued at 12:22 pm EST Wednesday 21 April 2021 (issued every 10 minutes, with the page automatically refreshed every 10 minutes)

About weather observations | Map of weather stations | Latest weather observations for VIC | Other Formats
Station Details ID: 086038 Name: ESSENDON AIRPORT Lat: -37.73 Lon: 144.91 Height: 78.4 m
Data from the previous 72 hours. | See also: Recent months at Essendon Airport
Date/Time
EST
Temp
°C
App
Temp
°C
Dew
Point
°C
Rel
Hum
%
Delta-T
°C
Wind Press
QNH
hPa
Press
MSL
hPa
Rain since
9am
mm
Dir  Spd
km/h
Gust
km/h
Spd
kts
Gust
kts
21/12:00pm 14.2 11.8 4.2 51 4.6 SSE 6 11 3 6 1017.4 1017.3 0.0
21/11:30am 14.2 12.1 5.6 56 4.1 WSW 6 9 3 5 1017.9 1017.8 0.0
21/11:00am 12.4 10.0 4.4 58 3.6 WNW 6 11 3 6 1018.3 1018.2 0.0
21/10:30am 12.0 9.5 5.0 62 3.2 W 7 9 4 5 1018.4 1018.3 0.0
21/10:00am 11.1 8.0 5.4 68 2.6 WSW 11 19 6 10 1018.6 1018.5 0.0
21/09:30am 10.3 7.2 5.7 73 2.1 WSW 11 13 6 7 1018.9 1018.8 0.0
21/09:00am 9.6 6.2 6.0 78 1.7 WSW 13 20 7 11 1019.0 1018.9 8.6
21/08:30am 8.2 5.7 5.0 80 1.4 NW 7 11 4 6 1018.9 1018.8 8.6
21/08:00am 6.3 3.8 4.6 89 0.7 NW 7 9 4 5 1018.7 1018.6 8.6
21/07:30am 5.6 2.6 3.9 89 0.7 NNW 9 11 5 6 1018.3 1018.2 8.6
21/07:00am 5.2 2.1 3.7 90 0.6 NNW 9 11 5 6 1017.9 1017.8 8.6
21/06:30am 5.9 3.3 4.1 88 0.8 W 7 11 4 6 1017.8 1017.7 8.6
21/06:00am 6.0 2.9 3.8 86 0.9 W 9 11 5 6 1017.4 1017.3 8.6
21/05:30am 6.6 3.3 4.4 86 1.0 WNW 11 13 6 7 1017.2 1017.1 8.6
21/05:00am 6.7 3.4 4.7 87 0.9 W 11 17 6 9 1017.3 1017.2 8.6
21/04:30am 6.5 3.6 4.8 89 0.7 SW 9 11 5 6 1017.2 1017.1 8.6
21/04:00am 6.2 1.8 4.5 89 0.7 WNW 17 20 9 11 1016.8 1016.7 8.2
21/03:30am 6.3 2.6 4.5 88 0.8 W 13 19 7 10 1016.7 1016.6 8.2
21/03:00am 6.9 3.6 4.7 86 1.0 W 11 15 6 8 1016.9 1016.8 8.2
21/02:30am 7.2 4.3 4.9 85 1.0 WSW 9 11 5 6 1017.0 1016.9 8.2
21/02:00am 7.1 5.7 5.4 89 0.8 SSW 2 7 1 4 1017.0 1016.9 8.2
21/01:30am 7.2 4.9 5.0 86 1.0 SSW 6 11 3 6 1016.9 1016.8 8.2
21/01:00am 6.8 2.4 4.6 86 1.0 WSW 17 22 9 12 1016.5 1016.4 8.2
21/12:30am 6.9 2.5 4.7 86 1.0 WSW 17 24 9 13 1016.3 1016.2 8.2
21/12:00am 6.8 2.4 5.0 88 0.8 WSW 17 20 9 11 1016.2 1016.1 8.2
 
Date/Time
EST
Temp
°C
App
Temp
°C
Dew
Point
°C
Rel
Hum
%
Delta-T
°C
Wind Press
QNH
hPa
Press
MSL
hPa
Rain since
9am
mm
Dir  Spd
km/h
Gust
km/h
Spd
kts
Gust
kts
20/11:30pm 6.8 2.4 5.0 88 0.8 WSW 17 24 9 13 1016.3 1016.2 8.2
20/11:00pm 7.4 2.6 5.4 87 0.9 W 20 24 11 13 1016.4 1016.3 8.2
20/10:30pm 7.4 3.2 5.7 89 0.8 W 17 20 9 11 1016.3 1016.2 8.2
20/10:00pm 8.1 4.5 6.7 91 0.6 W 15 19 8 10 1016.3 1016.2 8.2
20/09:30pm 8.4 4.9 7.0 91 0.7 WSW 15 17 8 9 1015.9 1015.8 8.2
20/09:00pm 8.4 4.0 7.3 93 0.5 SSW 20 33 11 18 1015.8 1015.7 8.0
20/08:30pm 7.9 5.5 6.8 93 0.5 SW 9 9 5 5 1015.6 1015.5 7.2
20/08:00pm 8.6 2.6 7.1 90 0.7 SW 28 44 15 24 1015.7 1015.6 7.2
20/07:53pm 8.9 2.9 7.2 89 0.8 WSW 28 48 15 26 1015.7 1015.6 6.8
20/07:30pm 9.1 4.9 7.4 89 0.8 WSW 19 22 10 12 1015.2 1015.1 6.4
20/07:00pm 9.2 5.1 8.0 92 0.6 SW 19 26 10 14 1014.8 1014.8 6.4
20/06:30pm 9.6 6.5 8.7 94 0.4 WSW 15 19 8 10 1014.3 1014.3 6.2
20/06:00pm 9.9 5.5 8.8 93 0.5 WSW 22 30 12 16 1013.9 1013.9 5.8
20/05:47pm 9.9 6.8 8.8 93 0.5 SW 15 20 8 11 1013.6 1013.6 5.8
20/05:33pm 10.1 6.3 9.2 94 0.4 SSW 19 24 10 13 1013.5 1013.5 5.8
20/05:30pm 10.2 6.5 9.3 94 0.4 SW 19 28 10 15 1013.4 1013.4 5.2
20/05:00pm 10.2 6.4 9.7 97 0.3 SW 20 28 11 15 1012.9 1012.9 5.2
20/04:30pm 10.1 6.4 9.5 96 0.3 SW 19 26 10 14 1012.5 1012.5 4.4
20/04:28pm 10.1 6.2 9.5 96 0.3 SW 20 28 11 15 1012.5 1012.5 4.4
20/04:10pm 10.2 3.8 9.3 94 0.4 SW 33 52 18 28 1012.1 1012.1 4.0
20/04:09pm 10.2 3.7 9.1 93 0.5 SW 33 52 18 28 1012.0 1012.0 3.8
20/04:05pm 10.5 5.0 9.1 91 0.7 SW 28 52 15 28 1012.0 1012.0 3.2
20/04:02pm 10.7 6.2 8.6 87 1.0 SW 22 52 12 28 1011.8 1011.7 3.0
20/04:00pm 11.7 8.1 9.8 88 1.0 SW 19 30 10 16 1011.6 1011.5 3.0
20/03:38pm 11.5 7.6 9.6 88 1.0 SW 20 28 11 15 1011.4 1011.3 3.0
20/03:30pm 11.4 7.1 9.5 88 1.0 SW 22 32 12 17 1011.3 1011.2 3.0
20/03:00pm 11.2 9.5 10.0 92 0.6 WNW 9 19 5 10 1010.8 1010.7 3.0
20/02:30pm 11.2 9.8 9.6 90 0.8 NW 7 11 4 6 1010.8 1010.7 2.8
20/02:00pm 11.0 9.6 9.4 90 0.8 NNW 7 11 4 6 1010.4 1010.3 2.8
20/01:30pm 11.0 9.1 9.1 88 0.9 NW 9 13 5 7 1011.1 1011.0 2.4
20/01:00pm 11.1 8.5 9.4 89 0.9 WNW 13 24 7 13 1011.3 1011.2 0.8
20/12:30pm 12.4 7.6 8.9 79 1.8 WSW 24 30 13 16 1011.8 1011.7 0.0
20/12:00pm 13.3 8.7 8.2 71 2.5 SSW 22 28 12 15 1011.8 1011.7 0.0
20/11:30am 13.9 8.5 7.9 67 3.0 SSW 26 35 14 19 1011.4 1011.3 0.0
20/11:00am 14.8 8.9 7.4 61 3.7 SW 28 41 15 22 1011.0 1010.9 0.0
20/10:30am 18.0 11.4 6.2 46 5.8 NNW 30 41 16 22 1010.4 1010.3 0.0
20/10:00am 17.9 11.7 6.1 46 5.8 NW 28 44 15 24 1010.6 1010.5 0.0
20/09:31am 17.4 11.2 6.3 48 5.5 NNW 28 46 15 25 1010.6 1010.5 0.0
20/09:30am 17.3 11.2 6.5 49 5.3 NNW 28 39 15 21 1010.6 1010.5 0.0
20/09:00am 17.0 12.6 7.4 53 4.8 NNW 20 28 11 15 1010.9 1010.8 0.0
20/08:30am 15.1 12.4 7.4 60 3.8 N 11 15 6 8 1011.1 1011.0 0.0
20/08:00am 13.8 10.9 6.4 61 3.6 N 11 13 6 7 1011.2 1011.1 0.0
20/07:30am 14.1 10.3 6.0 58 3.9 N 15 20 8 11 1010.8 1010.7 0.0
20/07:00am 13.5 9.3 5.7 59 3.7 N 17 24 9 13 1010.7 1010.6 0.0
20/06:30am 13.3 9.1 5.7 60 3.6 N 17 22 9 12 1010.8 1010.7 0.0
20/06:00am 13.3 9.9 5.9 61 3.5 N 13 17 7 9 1010.9 1010.8 0.0
20/05:30am 13.5 10.1 5.9 60 3.6 N 13 20 7 11 1011.1 1011.0 0.0
20/05:00am 14.5 11.1 5.8 56 4.2 N 13 19 7 10 1011.2 1011.1 0.0
20/04:30am 14.8 11.1 6.1 56 4.2 NNW 15 20 8 11 1011.3 1011.2 0.0
20/04:00am 14.8 10.7 6.1 56 4.2 N 17 24 9 13 1011.2 1011.1 0.0
20/03:30am 15.0 10.4 6.3 56 4.2 N 20 28 11 15 1011.2 1011.1 0.0
20/03:00am 14.9 10.5 6.5 57 4.1 N 19 28 10 15 1011.4 1011.3 0.0
20/02:30am 14.9 10.3 6.5 57 4.1 N 20 28 11 15 1011.5 1011.4 0.0
20/02:00am 15.6 10.3 6.9 56 4.3 N 24 32 13 17 1011.9 1011.9 0.0
20/01:30am 16.1 11.6 6.8 54 4.6 NNW 20 33 11 18 1012.3 1012.3 0.0
20/01:00am 16.3 12.0 7.0 54 4.6 N 19 26 10 14 1012.5 1012.5 0.0
20/12:30am 16.6 12.7 7.0 53 4.8 NNW 17 22 9 12 1012.7 1012.7 0.0
20/12:00am 16.5 12.1 7.4 55 4.6 N 20 32 11 17 1012.8 1012.8 0.0
 
Date/Time
EST
Temp
°C
App
Temp
°C
Dew
Point
°C
Rel
Hum
%
Delta-T
°C
Wind Press
QNH
hPa
Press
MSL
hPa
Rain since
9am
mm
Dir  Spd
km/h
Gust
km/h
Spd
kts
Gust
kts
19/11:30pm 16.6 12.2 7.3 54 4.7 N 20 32 11 17 1013.1 1013.1 0.0
19/11:00pm 16.8 12.4 7.4 54 4.7 NNW 20 32 11 17 1013.5 1013.5 0.0
19/10:30pm 16.8 12.4 7.4 54 4.7 NNW 20 28 11 15 1013.6 1013.6 0.0
19/10:00pm 17.1 12.7 7.5 53 4.8 NNW 20 28 11 15 1013.6 1013.6 0.0
19/09:30pm 17.1 12.8 7.7 54 4.8 NNW 20 32 11 17 1013.5 1013.5 0.0
19/09:00pm 17.1 13.4 8.0 55 4.6 NNW 17 26 9 14 1013.7 1013.7 0.0
19/08:30pm 17.1 13.4 8.0 55 4.6 NW 17 24 9 13 1013.9 1013.9 0.0
19/08:00pm 16.8 14.3 8.0 56 4.5 NNW 11 17 6 9 1014.0 1014.0 0.0
19/07:30pm 16.8 13.5 8.0 56 4.5 NNW 15 20 8 11 1014.2 1014.2 0.0
19/07:00pm 17.0 13.4 8.4 57 4.4 NNW 17 24 9 13 1014.2 1014.2 0.0
19/06:30pm 17.2 14.0 8.4 56 4.5 NNW 15 20 8 11 1014.0 1014.0 0.0
19/06:00pm 17.7 13.7 8.3 54 4.8 NNW 19 24 10 13 1013.6 1013.6 0.0
19/05:30pm 18.4 13.7 7.8 50 5.4 NNW 22 32 12 17 1013.7 1013.7 0.0
19/05:00pm 18.7 14.4 7.2 47 5.8 NNW 19 28 10 15 1013.7 1013.7 0.0
19/04:30pm 18.8 14.7 7.9 49 5.6 NNW 19 26 10 14 1013.8 1013.8 0.0
19/04:00pm 19.1 14.5 6.6 44 6.3 NW 20 32 11 17 1013.8 1013.8 0.0
19/03:30pm 19.1 14.2 6.9 45 6.2 NW 22 33 12 18 1014.0 1014.0 0.0
19/03:00pm 19.4 15.3 7.8 47 6.0 NNW 19 30 10 16 1014.1 1014.1 0.0
19/02:30pm 19.2 13.6 7.3 46 6.1 NW 26 41 14 22 1014.3 1014.3 0.0
19/02:00pm 20.0 14.9 7.7 45 6.3 NW 24 35 13 19 1014.5 1014.5 0.0
19/01:30pm 20.1 15.6 6.8 42 6.7 NW 20 28 11 15 1014.9 1014.9 0.0
19/01:00pm 18.6 13.3 6.8 46 5.9 NW 24 35 13 19 1015.4 1015.3 0.0
19/12:30pm 18.6 13.8 5.5 42 6.4 NNW 20 32 11 17 1015.9 1015.8 0.0
19/12:00pm 18.7 14.0 5.9 43 6.3 NNW 20 33 11 18 1016.6 1016.5 0.0
19/11:30am 18.3 14.1 7.4 49 5.5 NNW 19 30 10 16 1017.0 1016.9 0.0
19/11:00am 18.1 16.3 9.5 57 4.5 NNW 9 13 5 7 1017.4 1017.3 0.0
19/10:30am 17.0 14.1 8.2 56 4.5 NNW 13 19 7 10 1017.7 1017.6 0.0
19/10:00am 16.4 13.2 8.4 59 4.1 NW 15 20 8 11 1018.0 1017.9 0.0
19/09:30am 15.9 13.1 8.4 61 3.8 NW 13 17 7 9 1018.2 1018.1 0.0
19/09:00am 15.2 13.3 8.9 66 3.2 NNW 9 13 5 7 1018.5 1018.4 0.0
19/08:30am 14.8 12.9 9.0 68 3.0 NW 9 11 5 6 1018.5 1018.4 0.0
19/08:00am 14.3 12.5 9.3 72 2.6 NW 9 13 5 7 1018.2 1018.1 0.0
19/07:30am 13.6 11.8 9.3 75 2.2 NW 9 13 5 7 1017.9 1017.8 0.0
19/07:00am 13.1 11.6 9.2 77 2.0 NW 7 11 4 6 1017.9 1017.8 0.0
19/06:30am 13.0 10.8 9.3 78 1.9 NW 11 15 6 8 1017.9 1017.8 0.0
19/06:00am 12.4 10.2 9.2 81 1.6 NNW 11 13 6 7 1017.8 1017.7 0.0
19/05:30am 12.2 9.2 9.4 83 1.4 W 15 17 8 9 1018.0 1017.9 0.0
19/05:00am 11.9 9.8 9.6 86 1.2 WNW 11 13 6 7 1017.8 1017.7 0.0
19/04:30am 12.3 10.6 10.0 86 1.2 NNW 9 11 5 6 1017.7 1017.6 0.0
19/04:00am 12.2 10.2 10.1 87 1.1 NNW 11 13 6 7 1017.7 1017.6 0.0
19/03:30am 12.3 10.6 10.0 86 1.2 NNW 9 9 5 5 1017.7 1017.6 0.0
19/03:00am 12.8 11.3 10.7 87 1.1 NW 9 11 5 6 1018.3 1018.2 0.0
19/02:30am 12.9 12.1 11.1 89 0.9 WNW 6 11 3 6 1018.6 1018.5 0.0
19/02:00am 12.7 11.3 10.9 89 0.9 WSW 9 11 5 6 1018.7 1018.6 0.0
19/01:30am 13.8 13.6 11.7 87 1.1 WSW 4 6 2 3 1019.1 1019.0 0.0
19/01:00am 13.8 13.2 11.8 88 1.1 WSW 6 7 3 4 1019.3 1019.2 0.0
19/12:30am 13.8 13.2 11.8 88 1.1 WSW 6 7 3 4 1019.4 1019.3 0.0
19/12:00am 13.0 13.4 11.1 88 1.0 CALM 0 0 0 0 1019.6 1019.5 0.0
 
Date/Time
EST
Temp
°C
App
Temp
°C
Dew
Point
°C
Rel
Hum
%
Delta-T
°C
Wind Press
QNH
hPa
Press
MSL
hPa
Rain since
9am
mm
Dir  Spd
km/h
Gust
km/h
Spd
kts
Gust
kts
18/11:30pm 13.8 14.3 11.5 86 1.2 CALM 0 0 0 0 1019.7 1019.6 0.0
18/11:00pm 14.5 14.3 11.7 83 1.5 WSW 4 7 2 4 1019.8 1019.7 0.0
18/10:30pm 14.4 14.6 11.7 84 1.5 WSW 2 6 1 3 1020.0 1019.9 0.0
18/10:00pm 14.5 14.5 11.3 81 1.7 WSW 2 6 1 3 1020.1 1020.0 0.0
18/09:30pm 15.2 14.6 11.8 80 1.8 WSW 6 7 3 4 1020.2 1020.1 0.0
18/09:00pm 15.4 14.8 11.8 79 1.9 WSW 6 7 3 4 1020.2 1020.1 0.0
18/08:30pm 15.5 14.4 11.9 79 2.0 WSW 9 11 5 6 1020.3 1020.2 0.0
18/08:00pm 16.0 12.7 11.6 75 2.4 WSW 20 28 11 15 1020.5 1020.4 0.0
18/07:30pm 16.5 14.8 9.9 65 3.5 W 9 11 5 6 1020.5 1020.4 0.0
18/07:00pm 16.7 15.0 9.9 64 3.6 W 9 13 5 7 1020.6 1020.5 0.0
18/06:30pm 17.0 15.3 9.7 62 3.8 WSW 9 11 5 6 1020.4 1020.3 0.0
18/06:00pm 17.3 15.6 9.7 61 4.0 WSW 9 13 5 7 1020.1 1020.0 0.0
18/05:30pm 17.4 15.3 9.8 61 4.0 WSW 11 13 6 7 1020.1 1020.0 0.0
18/05:00pm 17.8 14.9 9.7 59 4.3 WSW 15 19 8 10 1020.0 1019.9 0.0
18/04:30pm 17.9 15.0 9.8 59 4.3 WSW 15 20 8 11 1020.0 1019.9 0.0
18/04:00pm 18.0 14.3 9.4 57 4.5 WSW 19 22 10 12 1020.1 1020.0 0.0
18/03:30pm 18.1 14.3 9.2 56 4.7 W 19 22 10 12 1020.2 1020.1 0.0
18/03:00pm 18.4 15.5 9.7 57 4.6 WSW 15 20 8 11 1020.3 1020.2 0.0
18/02:30pm 17.4 15.5 10.5 64 3.7 SSE 11 15 6 8 1020.4 1020.3 0.0
18/02:00pm 17.5 15.5 10.1 62 3.9 SSE 11 15 6 8 1020.5 1020.4 0.0
18/01:30pm 18.2 16.1 9.8 58 4.5 SSW 11 19 6 10 1020.7 1020.6 0.0
18/01:00pm 18.0 16.0 8.8 55 4.8 SW 9 15 5 8 1021.1 1021.0 0.0
18/12:30pm 17.7 15.8 9.1 57 4.5 WSW 9 15 5 8 1021.7 1021.6 0.0

Other formats

Comma delimited format used in spreadsheet applications
http://www.bom.gov.au/fwo/IDV60801/IDV60801.95866.axf

JavaScript Object Notation format (JSON) in row-major order
http://www.bom.gov.au/fwo/IDV60801/IDV60801.95866.json

Data quality

Most of these data are generated automatically and are frequently updated. Quality checks on data are not normally performed. It is possible for incorrect values to appear. Refer to information at About Latest Weather Observations and please check the disclaimer before using these data.